Time;durP1;ratioP1;P1;durP2;ratioP2;P2;SDS_P1;SDS_P2;PMS_P1;PMS_P2;Temp;Humidity;BMP_temperature;BMP_pressure;BME280_temperature;BME280_humidity;BME280_pressure;Samples;Min_cycle;Max_cycle;Signal;HPM_P1;HPM_P2
2023/03/29 00:00:38;;;;;;;1.35;1.13;;;;;;;6.03;77.44;101711.63;5037133;27;96762;-29
2023/03/29 00:03:03;;;;;;;0.60;0.45;;;;;;;6.05;77.24;101702.59;5037096;27;97788;-29
2023/03/29 00:05:32;;;;;;;1.90;0.45;;;;;;;6.10;77.12;101714.13;5037054;27;99123;-31
2023/03/29 00:08:02;;;;;;;1.50;0.82;;;;;;;6.07;76.95;101691.78;5035755;27;96519;-30
2023/03/29 00:10:30;;;;;;;0.50;0.50;;;;;;;6.15;77.07;101697.84;5035675;28;96687;-29
2023/03/29 00:12:56;;;;;;;0.50;0.47;;;;;;;6.16;76.85;101694.22;5034940;28;100554;-29
2023/03/29 00:15:21;;;;;;;0.35;0.35;;;;;;;6.18;76.24;101691.50;5036671;28;98782;-29
2023/03/29 00:17:47;;;;;;;2.05;0.88;;;;;;;6.17;76.44;101685.19;5037240;28;96544;-29
2023/03/29 00:20:12;;;;;;;1.55;0.60;;;;;;;6.19;75.82;101683.34;5036334;27;96810;-29
2023/03/29 00:22:40;;;;;;;0.40;0.40;;;;;;;6.22;76.40;101685.06;5036482;27;99313;-29
2023/03/29 00:25:07;;;;;;;0.70;0.43;;;;;;;6.21;76.34;101681.50;5035018;28;101105;-29
2023/03/29 00:27:32;;;;;;;0.28;0.28;;;;;;;6.27;76.32;101683.13;5035007;28;96812;-30
2023/03/29 00:29:58;;;;;;;6.40;0.50;;;;;;;6.27;76.58;101675.03;5035758;28;96777;-29
2023/03/29 00:32:24;;;;;;;1.15;0.70;;;;;;;6.26;76.37;101676.84;5034921;28;101450;-29
2023/03/29 00:34:49;;;;;;;0.80;0.60;;;;;;;6.31;76.76;101674.03;5036165;27;97809;-29
2023/03/29 00:37:17;;;;;;;0.38;0.35;;;;;;;6.31;76.70;101669.53;5036291;27;96484;-29
2023/03/29 00:39:44;;;;;;;1.45;0.70;;;;;;;6.34;76.74;101672.16;5035203;28;96822;-28
2023/03/29 00:42:12;;;;;;;1.55;0.80;;;;;;;6.33;77.12;101662.28;5034862;28;101318;-29
2023/03/29 00:45:02;;;;;;;0.13;0.13;;;;;;;6.31;77.48;101658.75;5034813;28;100616;-31
2023/03/29 00:47:42;;;;;;;0.43;0.40;;;;;;;6.31;77.38;101657.88;5035237;28;96781;-29
2023/03/29 00:50:21;;;;;;;0.55;0.45;;;;;;;6.35;77.09;101649.69;5036548;27;96599;-29
2023/03/29 00:53:14;;;;;;;0.93;0.60;;;;;;;6.34;77.56;101645.25;5036168;28;97552;-30
2023/03/29 00:55:39;;;;;;;0.52;0.43;;;;;;;6.35;77.42;101648.81;5036215;28;96710;-29
2023/03/29 00:58:07;;;;;;;0.35;0.35;;;;;;;6.38;77.46;101643.31;5036250;27;96439;-28
2023/03/29 01:00:39;;;;;;;1.48;0.98;;;;;;;6.37;77.21;101644.25;5035003;28;96766;-29
2023/03/29 01:03:12;;;;;;;2.30;1.02;;;;;;;6.37;77.95;101639.75;5034042;28;100886;-30
2023/03/29 01:05:46;;;;;;;0.55;0.45;;;;;;;6.40;77.60;101643.28;5034367;28;101366;-29
2023/03/29 01:08:17;;;;;;;0.95;0.65;;;;;;;6.42;77.47;101647.69;5036009;27;96675;-31
2023/03/29 01:10:48;;;;;;;0.93;0.83;;;;;;;6.39;77.37;101628.94;5034845;28;96761;-29
2023/03/29 01:13:31;;;;;;;5.43;0.67;;;;;;;6.44;77.17;101640.44;5034345;28;100813;-28
2023/03/29 01:15:58;;;;;;;0.38;0.38;;;;;;;6.50;77.34;101628.59;5034515;28;100927;-29
2023/03/29 01:18:23;;;;;;;3.72;0.90;;;;;;;6.50;77.50;101631.28;5034459;28;96767;-29
2023/03/29 01:20:52;;;;;;;0.70;0.55;;;;;;;6.52;77.51;101632.13;5036241;27;96873;-29
2023/03/29 01:23:42;;;;;;;1.20;0.75;;;;;;;6.53;77.27;101626.69;5034207;28;99307;-29
2023/03/29 01:26:26;;;;;;;0.22;0.22;;;;;;;6.53;77.28;101624.00;5035525;28;97842;-29
2023/03/29 01:29:07;;;;;;;2.33;0.40;;;;;;;6.52;77.35;101614.16;5035176;28;96788;-32
2023/03/29 01:31:44;;;;;;;0.95;0.60;;;;;;;6.54;77.21;101611.44;5033470;27;96722;-29
2023/03/29 01:34:24;;;;;;;0.90;0.60;;;;;;;6.57;77.14;101612.19;5033721;28;101000;-28
2023/03/29 01:36:49;;;;;;;0.98;0.70;;;;;;;6.59;76.71;101613.03;5035334;27;97781;-28
2023/03/29 01:39:17;;;;;;;0.47;0.47;;;;;;;6.57;77.28;101603.25;5035810;28;96461;-29
2023/03/29 01:42:15;;;;;;;2.85;0.75;;;;;;;6.59;77.24;101606.78;5034233;28;96783;-29
2023/03/29 01:44:55;;;;;;;1.10;0.57;;;;;;;6.59;77.34;101613.03;5034002;28;101415;-29
2023/03/29 01:47:35;;;;;;;1.10;0.73;;;;;;;6.62;76.96;101605.78;5035567;28;99185;-29
2023/03/29 01:50:11;;;;;;;5.55;0.70;;;;;;;6.62;77.42;101609.34;5034177;28;96560;-29
2023/03/29 01:52:55;;;;;;;2.15;0.57;;;;;;;6.62;77.18;101600.41;5034033;28;96788;-30
2023/03/29 01:55:30;;;;;;;0.57;0.52;;;;;;;6.63;77.12;101607.56;5034768;27;97910;-30
2023/03/29 01:57:58;;;;;;;1.02;0.50;;;;;;;6.64;76.88;101604.81;5033582;28;103302;-30
2023/03/29 02:00:26;;;;;;;0.80;0.73;;;;;;;6.66;77.09;101594.88;5033883;28;96549;-30
2023/03/29 02:03:01;;;;;;;0.93;0.73;;;;;;;6.70;76.87;101590.28;5033879;28;96797;-29
2023/03/29 02:05:30;;;;;;;2.55;0.90;;;;;;;6.68;77.50;101595.69;5034821;27;99227;-30
2023/03/29 02:07:58;;;;;;;0.80;0.68;;;;;;;6.70;77.22;101590.28;5033585;27;101108;-29
2023/03/29 02:10:25;;;;;;;0.68;0.50;;;;;;;6.71;76.75;101587.50;5033696;28;96621;-30
2023/03/29 02:12:51;;;;;;;1.67;1.08;;;;;;;6.73;77.13;101595.56;5033998;28;96879;-29
2023/03/29 02:15:18;;;;;;;0.65;0.65;;;;;;;6.71;76.95;101592.91;5034934;27;97679;-29
2023/03/29 02:17:45;;;;;;;1.05;0.70;;;;;;;6.70;76.97;101593.84;5033408;28;100861;-29
2023/03/29 02:20:28;;;;;;;1.15;0.60;;;;;;;6.73;77.14;101599.13;5033202;28;96637;-29
2023/03/29 02:23:26;;;;;;;1.55;0.73;;;;;;;6.75;77.32;101581.09;5035283;28;96475;-29
2023/03/29 02:25:53;;;;;;;1.80;1.23;;;;;;;6.71;77.45;101574.06;5033211;28;101315;-30
2023/03/29 02:28:21;;;;;;;0.82;0.63;;;;;;;6.74;77.23;101567.69;5032665;28;101071;-28
2023/03/29 02:31:03;;;;;;;0.90;0.60;;;;;;;6.75;77.10;101569.47;5033463;28;96687;-29
2023/03/29 02:33:42;;;;;;;0.75;0.68;;;;;;;6.76;76.94;101565.81;5033580;28;96761;-29
2023/03/29 02:36:21;;;;;;;0.68;0.47;;;;;;;6.76;77.20;101560.44;5033146;28;100845;-29
2023/03/29 02:38:46;;;;;;;1.83;0.82;;;;;;;6.75;77.22;101553.31;5033487;28;101050;-29
2023/03/29 02:41:13;;;;;;;2.00;0.77;;;;;;;6.75;77.28;101564.94;5034811;27;96478;-29
2023/03/29 02:43:40;;;;;;;2.22;1.10;;;;;;;6.77;77.08;101557.69;5038361;27;96579;-28
2023/03/29 02:46:06;;;;;;;1.02;0.73;;;;;;;6.80;76.80;101557.59;5038903;28;101225;-29
2023/03/29 02:48:35;;;;;;;3.80;0.77;;;;;;;6.80;77.04;101552.19;5039813;28;101452;-29
2023/03/29 02:51:07;;;;;;;1.48;0.77;;;;;;;6.82;76.98;101554.84;5039991;28;96719;-29
2023/03/29 02:53:41;;;;;;;0.60;0.40;;;;;;;6.81;77.29;101551.25;5040168;28;96730;-29
2023/03/29 02:56:07;;;;;;;1.52;0.80;;;;;;;6.79;77.54;101550.47;5039584;27;100697;-29
2023/03/29 02:58:32;;;;;;;0.90;0.47;;;;;;;6.79;77.53;101539.69;5039377;27;100734;-29
2023/03/29 03:01:00;;;;;;;1.67;1.02;;;;;;;6.80;77.58;101541.44;5041181;27;96547;-29
2023/03/29 03:03:26;;;;;;;2.40;0.85;;;;;;;6.86;77.24;101536.75;5040263;28;96816;-29
2023/03/29 03:05:51;;;;;;;0.82;0.70;;;;;;;6.85;76.92;101533.19;5040999;27;97479;-30
2023/03/29 03:08:17;;;;;;;2.35;0.80;;;;;;;6.89;76.94;101534.84;5040993;27;97802;-29
2023/03/29 03:10:43;;;;;;;0.63;0.52;;;;;;;6.89;77.29;101537.53;5022539;28;96549;-29
2023/03/29 03:13:08;;;;;;;1.30;1.10;;;;;;;6.91;77.47;101534.78;5040910;28;96765;-30
2023/03/29 03:15:34;;;;;;;0.98;0.60;;;;;;;6.91;77.42;101529.41;5040778;27;99770;-29
2023/03/29 03:18:02;;;;;;;2.75;1.10;;;;;;;6.90;77.05;101531.22;5039271;28;99621;-30
2023/03/29 03:20:28;;;;;;;1.65;0.63;;;;;;;6.89;77.08;101529.47;5039728;28;96752;-29
2023/03/29 03:22:53;;;;;;;5.53;0.95;;;;;;;6.91;77.26;101524.00;5039784;28;96864;-29
2023/03/29 03:25:19;;;;;;;2.10;0.98;;;;;;;6.92;77.12;101523.09;5040636;27;97937;-30
2023/03/29 03:27:47;;;;;;;2.40;0.75;;;;;;;6.93;77.56;101522.16;5038430;28;100793;-30
2023/03/29 03:30:13;;;;;;;2.20;0.88;;;;;;;6.98;77.44;101517.47;5039627;27;96758;-29
2023/03/29 03:32:38;;;;;;;0.93;0.52;;;;;;;6.97;77.36;101515.72;5040842;28;96837;-29
2023/03/29 03:35:06;;;;;;;2.25;1.17;;;;;;;6.99;77.80;101524.63;5038439;28;100825;-29
2023/03/29 03:37:32;;;;;;;1.23;0.80;;;;;;;7.00;77.46;101521.00;5040400;27;99297;-29
2023/03/29 03:39:58;;;;;;;0.93;0.65;;;;;;;7.02;77.44;101519.13;5040928;28;96691;-29
2023/03/29 03:42:27;;;;;;;1.10;0.93;;;;;;;7.02;77.35;101513.75;5039111;27;96924;-29
2023/03/29 03:44:52;;;;;;;1.88;1.05;;;;;;;7.01;77.29;101520.94;5038908;28;101250;-28
2023/03/29 03:47:18;;;;;;;2.45;1.00;;;;;;;7.05;77.36;101521.69;5040391;27;97778;-29
2023/03/29 03:49:43;;;;;;;1.80;1.08;;;;;;;7.04;77.78;101528.03;5040937;27;96618;-29
2023/03/29 03:52:09;;;;;;;1.38;1.02;;;;;;;7.03;77.65;101518.19;5040871;27;96748;-30
2023/03/29 03:54:34;;;;;;;1.13;0.85;;;;;;;7.05;77.40;101523.53;5037424;27;100068;-30
2023/03/29 03:56:59;;;;;;;1.02;0.77;;;;;;;7.07;77.59;101517.16;5036811;28;102131;-29
2023/03/29 03:59:25;;;;;;;0.98;0.70;;;;;;;7.07;77.67;101519.84;5036568;27;96597;-30
2023/03/29 04:01:51;;;;;;;2.13;0.80;;;;;;;7.10;77.66;101518.84;5037443;27;96712;-29
2023/03/29 04:04:18;;;;;;;2.97;0.95;;;;;;;7.10;78.24;101516.16;5035329;28;101149;-29
2023/03/29 04:06:43;;;;;;;1.60;0.80;;;;;;;7.11;77.78;101508.03;5035629;28;101341;-30
2023/03/29 04:09:09;;;;;;;1.10;0.75;;;;;;;7.13;77.58;101516.94;5037339;27;96483;-29
2023/03/29 04:11:34;;;;;;;1.63;0.88;;;;;;;7.13;78.19;101513.38;5036918;27;96834;-29
2023/03/29 04:14:00;;;;;;;1.27;0.85;;;;;;;7.12;77.78;101515.16;5036775;27;97996;-29
2023/03/29 04:16:26;;;;;;;1.73;1.10;;;;;;;7.12;77.65;101507.06;5035618;28;100947;-29
2023/03/29 04:18:52;;;;;;;1.17;0.93;;;;;;;7.15;77.60;101509.69;5035596;28;96744;-29
2023/03/29 04:21:17;;;;;;;1.33;0.60;;;;;;;7.14;78.09;101513.28;5037059;28;96729;-29
2023/03/29 04:23:45;;;;;;;1.67;0.88;;;;;;;7.16;78.13;101502.47;5036257;27;97693;-29
2023/03/29 04:26:12;;;;;;;0.80;0.63;;;;;;;7.15;77.86;101498.91;5036226;27;98079;-31
2023/03/29 04:28:38;;;;;;;2.80;1.40;;;;;;;7.18;77.76;101500.59;5035186;28;96686;-29
2023/03/29 04:31:03;;;;;;;1.67;1.08;;;;;;;7.18;78.05;101504.16;5035508;28;96850;-29
2023/03/29 04:33:29;;;;;;;1.75;0.80;;;;;;;7.17;78.05;101491.63;5036022;27;99395;-28
2023/03/29 04:35:54;;;;;;;1.10;0.77;;;;;;;7.18;78.33;101493.38;5036618;27;97687;-30
2023/03/29 04:38:22;;;;;;;2.53;1.33;;;;;;;7.22;78.23;101494.13;5036324;27;96690;-28
2023/03/29 04:40:49;;;;;;;1.73;1.13;;;;;;;7.19;78.36;101484.34;5036975;27;96780;-29
2023/03/29 04:43:14;;;;;;;1.55;1.15;;;;;;;7.26;78.56;101497.63;5034715;28;101126;-31
2023/03/29 04:45:40;;;;;;;1.17;0.95;;;;;;;7.26;78.38;101489.53;5036303;27;97768;-29
2023/03/29 04:48:05;;;;;;;3.45;1.15;;;;;;;7.27;78.13;101486.78;5035920;27;96653;-29
2023/03/29 04:50:31;;;;;;;1.27;0.70;;;;;;;7.28;78.19;101490.34;5036323;27;96739;-29
2023/03/29 04:52:58;;;;;;;1.23;0.82;;;;;;;7.29;78.12;101489.41;5035979;27;99197;-29
2023/03/29 04:55:25;;;;;;;0.80;0.70;;;;;;;7.30;78.69;101486.66;5036095;27;97856;-28
2023/03/29 04:57:52;;;;;;;1.17;0.82;;;;;;;7.31;78.68;101488.41;5034889;27;96573;-29
2023/03/29 05:00:19;;;;;;;1.35;1.00;;;;;;;7.33;78.81;101493.75;5034831;28;96906;-29
2023/03/29 05:02:45;;;;;;;1.50;0.98;;;;;;;7.31;79.39;101487.53;5034603;28;100808;-28
2023/03/29 05:05:11;;;;;;;4.68;0.93;;;;;;;7.35;79.35;101489.19;5034706;27;100732;-31
2023/03/29 05:07:36;;;;;;;1.35;0.68;;;;;;;7.36;79.64;101502.59;5034869;28;96502;-29
2023/03/29 05:10:03;;;;;;;1.77;0.95;;;;;;;7.37;79.21;101495.41;5036172;27;96736;-29
2023/03/29 05:12:29;;;;;;;1.83;1.15;;;;;;;7.39;79.36;101496.22;5033974;28;101965;-29
2023/03/29 05:14:54;;;;;;;0.88;0.75;;;;;;;7.40;79.12;101492.59;5035661;27;98812;-29
2023/03/29 05:17:20;;;;;;;1.65;1.10;;;;;;;7.40;78.84;101493.47;5036212;28;96585;-29
2023/03/29 05:19:46;;;;;;;1.67;0.98;;;;;;;7.40;79.79;101500.66;5036116;27;96723;-29
2023/03/29 05:22:12;;;;;;;5.93;1.23;;;;;;;7.42;79.31;101504.19;5034022;28;101022;-30
2023/03/29 05:24:38;;;;;;;1.20;0.98;;;;;;;7.42;79.56;101507.75;5034146;28;100765;-29
2023/03/29 05:27:03;;;;;;;1.48;1.05;;;;;;;7.46;79.92;101511.22;5035450;27;96610;-29
2023/03/29 05:29:31;;;;;;;2.08;1.52;;;;;;;7.42;80.23;101491.59;5036440;28;96513;-29
2023/03/29 05:31:58;;;;;;;1.95;1.17;;;;;;;7.43;80.88;101508.63;5034117;28;101292;-29
2023/03/29 05:34:23;;;;;;;3.50;1.08;;;;;;;7.41;80.27;101500.63;5033984;27;100960;-29
2023/03/29 05:36:49;;;;;;;1.08;0.68;;;;;;;7.40;81.81;101508.75;5033443;28;96632;-29
2023/03/29 05:39:14;;;;;;;2.20;1.20;;;;;;;7.38;81.72;101502.53;5035534;28;96762;-29
2023/03/29 05:41:40;;;;;;;1.95;0.77;;;;;;;7.40;82.30;101511.44;5035230;27;99356;-30
2023/03/29 05:44:06;;;;;;;1.45;1.00;;;;;;;7.37;81.27;101503.50;5035306;28;97900;-29
2023/03/29 05:46:31;;;;;;;1.88;0.90;;;;;;;7.40;82.02;101489.88;5035620;27;96492;-29
2023/03/29 05:48:56;;;;;;;1.23;0.98;;;;;;;7.41;82.44;101499.72;5035404;27;96824;-29
2023/03/29 05:51:23;;;;;;;1.70;1.17;;;;;;;7.42;82.01;101506.88;5035189;27;97292;-30
2023/03/29 05:53:50;;;;;;;1.48;1.15;;;;;;;7.43;81.66;101504.09;5033503;28;101008;-30
2023/03/29 05:56:15;;;;;;;1.50;1.00;;;;;;;7.44;82.88;101508.59;5034033;28;96554;-30
2023/03/29 05:58:41;;;;;;;2.40;1.35;;;;;;;7.44;82.88;101502.31;5035038;27;96721;-32
2023/03/29 06:01:13;;;;;;;2.70;1.60;;;;;;;7.46;82.53;101497.75;5030522;28;101168;-31
2023/03/29 06:03:39;;;;;;;1.15;0.93;;;;;;;7.51;82.26;101503.84;5032363;27;99100;-29
2023/03/29 06:06:05;;;;;;;1.02;0.88;;;;;;;7.52;82.96;101497.50;5031543;28;97133;-29
2023/03/29 06:08:32;;;;;;;2.25;1.13;;;;;;;7.55;83.10;101496.50;5031961;28;97121;-33
2023/03/29 06:11:04;;;;;;;1.10;0.75;;;;;;;7.57;83.06;101491.94;5031262;28;101042;-34
2023/03/29 06:13:31;;;;;;;2.35;0.80;;;;;;;7.58;83.75;101491.88;5031416;28;101090;-29
2023/03/29 06:15:57;;;;;;;1.48;1.08;;;;;;;7.63;82.39;101497.09;5033142;28;97198;-29
2023/03/29 06:18:23;;;;;;;3.53;1.48;;;;;;;7.63;82.25;101492.59;5031430;27;97214;-29
2023/03/29 06:20:50;;;;;;;2.00;1.27;;;;;;;7.66;82.52;101492.44;5032590;28;99112;-29
2023/03/29 06:23:15;;;;;;;2.17;1.58;;;;;;;7.71;83.72;101486.00;5031365;28;101042;-29
2023/03/29 06:25:43;;;;;;;1.83;1.25;;;;;;;7.70;83.32;101486.94;5032285;28;97137;-31
2023/03/29 06:28:08;;;;;;;2.17;1.15;;;;;;;7.77;83.71;101489.34;5034388;27;96717;-30
2023/03/29 06:30:34;;;;;;;2.50;1.13;;;;;;;7.82;83.22;101498.13;5034484;27;100211;-29
2023/03/29 06:32:59;;;;;;;1.95;1.05;;;;;;;7.85;82.47;101495.31;5034493;27;99575;-29
2023/03/29 06:35:25;;;;;;;2.47;1.40;;;;;;;7.87;82.34;101500.66;5034745;27;96596;-29
2023/03/29 06:37:52;;;;;;;0.55;0.55;;;;;;;7.90;82.36;101502.34;5033529;28;96820;-29
2023/03/29 06:40:20;;;;;;;2.33;1.05;;;;;;;7.93;82.38;101513.88;5033092;28;101016;-30
2023/03/29 06:42:46;;;;;;;2.83;1.48;;;;;;;7.96;82.04;101510.16;5034631;27;99150;-28
2023/03/29 06:45:12;;;;;;;1.52;0.93;;;;;;;7.94;83.19;101504.84;5033192;28;96676;-29
2023/03/29 06:47:39;;;;;;;1.65;1.08;;;;;;;7.99;82.93;101507.38;5033315;28;96796;-29
2023/03/29 06:50:05;;;;;;;3.70;1.77;;;;;;;7.98;83.50;101505.59;5032438;28;100995;-28
2023/03/29 06:52:31;;;;;;;1.85;1.33;;;;;;;8.01;83.23;101508.19;5032846;28;101375;-30
2023/03/29 06:54:56;;;;;;;2.90;1.50;;;;;;;8.00;82.57;101504.59;5033462;28;96514;-30
2023/03/29 06:57:22;;;;;;;2.63;1.55;;;;;;;8.01;83.41;101505.50;5034560;27;96796;-29
2023/03/29 06:59:47;;;;;;;1.50;1.02;;;;;;;8.04;83.24;101516.16;5032898;28;99168;-29
2023/03/29 07:02:13;;;;;;;2.78;1.63;;;;;;;8.08;82.44;101524.06;5034170;27;102757;-30
2023/03/29 07:04:40;;;;;;;1.75;1.15;;;;;;;8.11;83.82;101532.97;5034556;27;96475;-29
2023/03/29 07:07:10;;;;;;;4.05;1.58;;;;;;;8.12;83.03;101523.94;5034894;27;96723;-29
2023/03/29 07:09:38;;;;;;;3.13;1.23;;;;;;;8.13;82.81;101525.69;5034247;27;97879;-29
2023/03/29 07:12:04;;;;;;;1.55;0.82;;;;;;;8.18;83.61;101529.09;5032652;28;100888;-29
2023/03/29 07:14:30;;;;;;;2.85;1.58;;;;;;;8.20;83.17;101533.50;5032595;28;96531;-29
2023/03/29 07:16:59;;;;;;;2.28;1.20;;;;;;;8.22;83.82;101539.69;5034140;27;96741;-29
2023/03/29 07:19:26;;;;;;;3.22;1.85;;;;;;;8.25;83.01;101519.81;5032622;28;100854;-29
2023/03/29 07:21:53;;;;;;;3.33;1.58;;;;;;;8.30;82.51;101526.75;5032536;28;101040;-30
2023/03/29 07:24:19;;;;;;;2.55;1.17;;;;;;;8.31;84.58;101519.53;5032862;28;96766;-29
2023/03/29 07:26:47;;;;;;;3.03;1.17;;;;;;;8.36;84.44;101525.63;5032213;28;96846;-31
2023/03/29 07:29:14;;;;;;;1.17;1.08;;;;;;;8.42;83.72;101538.03;5032918;27;100747;-30
2023/03/29 07:31:40;;;;;;;2.40;1.50;;;;;;;8.46;82.96;101531.53;5036235;27;100558;-29
2023/03/29 07:34:09;;;;;;;4.57;1.45;;;;;;;8.49;83.18;101534.13;5035931;28;96912;-29
2023/03/29 07:36:37;;;;;;;2.80;1.50;;;;;;;8.48;83.96;101533.22;5036157;28;96880;-29
2023/03/29 07:39:03;;;;;;;1.88;1.27;;;;;;;8.43;83.97;101518.19;5035349;28;100306;-29
2023/03/29 07:41:28;;;;;;;3.45;1.17;;;;;;;8.49;83.60;101517.94;5035678;28;101139;-29
2023/03/29 07:43:54;;;;;;;6.43;1.77;;;;;;;8.53;84.01;101516.84;5036834;28;97248;-28
2023/03/29 07:46:20;;;;;;;2.78;1.42;;;;;;;8.56;83.47;101515.88;5036724;27;96870;-29
2023/03/29 07:48:45;;;;;;;3.13;1.80;;;;;;;8.58;83.32;101514.84;5036890;28;110055;-29
2023/03/29 07:51:10;;;;;;;3.13;1.75;;;;;;;8.60;84.36;101520.16;5035621;27;101368;-29
2023/03/29 07:53:36;;;;;;;4.18;1.60;;;;;;;8.66;84.58;101523.50;5037435;27;96477;-28
2023/03/29 07:56:01;;;;;;;5.00;2.15;;;;;;;8.69;83.57;101522.47;5037500;27;96795;-29
2023/03/29 07:58:27;;;;;;;2.42;1.50;;;;;;;8.71;84.67;101523.28;5036626;27;100125;-29
2023/03/29 08:00:52;;;;;;;3.08;1.52;;;;;;;8.77;84.29;101533.84;5036754;27;99425;-29
2023/03/29 08:03:17;;;;;;;3.40;1.77;;;;;;;8.81;84.03;101529.19;5036494;27;97900;-29
2023/03/29 08:05:43;;;;;;;2.67;1.58;;;;;;;8.86;84.09;101527.16;5037135;27;96822;-29
2023/03/29 08:08:08;;;;;;;2.90;1.27;;;;;;;8.89;84.12;101530.63;5037089;27;97443;-28
2023/03/29 08:10:35;;;;;;;4.25;1.50;;;;;;;8.92;83.86;101524.19;5036944;27;97816;-29
2023/03/29 08:13:06;;;;;;;2.28;1.58;;;;;;;8.97;84.13;101515.88;5035764;28;96509;-29
2023/03/29 08:15:32;;;;;;;3.00;1.67;;;;;;;9.00;84.94;101518.44;5036989;27;96604;-29
2023/03/29 08:17:58;;;;;;;2.90;1.77;;;;;;;9.07;84.15;101514.53;5035286;28;100672;-29
2023/03/29 08:20:23;;;;;;;2.22;1.30;;;;;;;9.10;84.93;101512.53;5037150;27;97296;-28
2023/03/29 08:22:48;;;;;;;3.13;1.70;;;;;;;9.13;85.54;101509.72;5036970;27;96488;-29
2023/03/29 08:25:14;;;;;;;2.60;1.58;;;;;;;9.19;85.25;101513.97;5037074;27;96708;-29
2023/03/29 08:27:39;;;;;;;8.32;2.22;;;;;;;9.22;85.84;101511.13;5035328;27;97241;-30
2023/03/29 08:30:08;;;;;;;3.88;2.20;;;;;;;9.31;85.17;101508.00;5037040;27;96618;-30
2023/03/29 08:32:34;;;;;;;3.30;1.88;;;;;;;9.38;84.68;101505.91;5036921;27;96951;-28
2023/03/29 08:35:02;;;;;;;3.85;1.98;;;;;;;9.49;84.36;101510.81;5035128;28;96589;-29
2023/03/29 08:37:28;;;;;;;3.47;1.95;;;;;;;9.59;84.15;101508.56;5036435;27;98134;-29
2023/03/29 08:39:53;;;;;;;2.33;1.55;;;;;;;9.64;84.08;101515.50;5035834;27;98802;-28
2023/03/29 08:42:48;;;;;;;6.13;1.80;;;;;;;9.67;84.24;101519.91;5035514;28;97664;-29
2023/03/29 08:45:24;;;;;;;3.90;1.88;;;;;;;9.73;83.76;101515.06;4999128;27;96761;-30
2023/03/29 08:48:11;;;;;;;4.25;1.98;;;;;;;9.78;82.73;101515.72;5035024;28;101089;-30
2023/03/29 08:50:57;;;;;;;3.78;1.92;;;;;;;9.82;83.79;101516.47;5035991;28;99323;-29
2023/03/29 08:53:37;;;;;;;3.70;1.42;;;;;;;9.92;83.70;101514.22;5034713;28;96484;-29
2023/03/29 08:56:09;;;;;;;3.58;2.30;;;;;;;9.93;84.72;101507.84;5035036;28;96794;-29
2023/03/29 08:58:36;;;;;;;6.53;2.42;;;;;;;9.98;84.12;101500.34;5035948;27;97957;-29
2023/03/29 09:01:07;;;;;;;4.38;2.15;;;;;;;9.98;84.28;101500.34;5034276;27;100829;-29
2023/03/29 09:03:59;;;;;;;4.47;2.30;;;;;;;10.03;84.03;101511.84;5036186;27;96528;-28
2023/03/29 09:06:24;;;;;;;4.82;1.88;;;;;;;9.99;84.96;101507.56;5034951;28;96803;-30
2023/03/29 09:08:51;;;;;;;4.75;2.38;;;;;;;10.05;84.53;101514.47;5034388;28;101148;-29
2023/03/29 09:11:22;;;;;;;4.80;2.33;;;;;;;10.08;84.19;101495.38;5034669;28;101315;-29
2023/03/29 09:14:13;;;;;;;4.75;2.15;;;;;;;10.09;84.44;101502.56;5036129;28;96595;-29
2023/03/29 09:16:50;;;;;;;4.95;2.20;;;;;;;10.14;85.15;101503.22;5036282;28;96629;-29
2023/03/29 09:19:30;;;;;;;2.83;1.77;;;;;;;10.10;84.31;101507.00;5033988;27;101475;-29
2023/03/29 09:21:59;;;;;;;5.32;2.15;;;;;;;10.10;85.24;101517.84;5035789;27;98047;-29
2023/03/29 09:24:43;;;;;;;2.92;1.90;;;;;;;10.03;85.89;101517.25;5035935;27;96581;-29
2023/03/29 09:27:26;;;;;;;3.63;2.00;;;;;;;9.99;86.28;101515.66;5034011;28;96726;-30
2023/03/29 09:29:57;;;;;;;3.28;2.25;;;;;;;10.01;86.04;101516.47;5035491;28;99419;-31
2023/03/29 09:32:51;;;;;;;4.63;2.58;;;;;;;10.02;85.44;101520.91;5035616;27;97376;-29
2023/03/29 09:35:37;;;;;;;2.17;1.60;;;;;;;10.08;85.67;101509.81;5035755;27;96689;-30
2023/03/29 09:38:03;;;;;;;6.30;2.70;;;;;;;10.08;86.04;101520.63;5036204;27;96777;-28
2023/03/29 09:40:38;;;;;;;3.15;1.92;;;;;;;10.05;86.24;101528.88;5034024;28;100994;-30
2023/03/29 09:43:08;;;;;;;4.47;2.22;;;;;;;10.06;85.95;101527.94;5034134;28;101325;-31
2023/03/29 09:45:37;;;;;;;3.50;1.88;;;;;;;10.08;86.20;101533.28;5033527;28;96634;-29
2023/03/29 09:48:12;;;;;;;5.10;1.60;;;;;;;10.04;86.43;101537.97;5034236;28;96874;-29
2023/03/29 09:50:44;;;;;;;3.35;1.77;;;;;;;9.97;87.17;101533.81;5033987;28;101172;-28
2023/03/29 09:53:10;;;;;;;2.97;2.03;;;;;;;9.94;86.34;101533.97;5033817;28;100043;-29
2023/03/29 09:55:38;;;;;;;4.18;2.63;;;;;;;9.92;86.79;101530.44;5035506;28;96459;-31
2023/03/29 09:58:26;;;;;;;2.55;1.77;;;;;;;9.91;87.62;101528.66;5034114;28;97314;-29
2023/03/29 10:00:53;;;;;;;4.05;2.30;;;;;;;9.88;87.50;101531.53;5034992;27;99055;-28
2023/03/29 10:03:21;;;;;;;2.78;1.73;;;;;;;9.88;88.38;101529.69;5033840;28;98914;-29
2023/03/29 10:05:50;;;;;;;2.97;2.08;;;;;;;9.89;88.25;101520.66;5035188;27;96677;-30
2023/03/29 10:08:21;;;;;;;3.40;2.17;;;;;;;9.90;88.71;101518.81;5033890;28;96829;-29
2023/03/29 10:10:46;;;;;;;3.13;1.90;;;;;;;9.93;88.28;101514.13;5035021;28;97375;-30
2023/03/29 10:13:28;;;;;;;3.47;1.98;;;;;;;9.99;88.72;101510.25;5035058;28;98310;-29
2023/03/29 10:16:00;;;;;;;5.07;1.90;;;;;;;10.04;88.63;101508.19;5033859;28;96570;-31
2023/03/29 10:18:28;;;;;;;7.38;2.47;;;;;;;10.13;88.77;101514.97;5033746;28;96964;-29
2023/03/29 10:20:59;;;;;;;2.80;1.85;;;;;;;10.26;88.67;101509.84;5033408;28;100810;-30
2023/03/29 10:23:30;;;;;;;3.17;2.13;;;;;;;10.34;87.74;101503.09;5033247;28;101096;-29
2023/03/29 10:25:56;;;;;;;5.28;2.67;;;;;;;10.35;87.65;101506.72;5033594;28;96704;-28
2023/03/29 10:28:21;;;;;;;3.75;2.35;;;;;;;10.36;87.81;101500.34;5033029;28;96947;-29
2023/03/29 10:30:54;;;;;;;5.93;2.83;;;;;;;10.33;88.94;101489.66;5034680;27;97918;-30
2023/03/29 10:33:22;;;;;;;3.83;2.45;;;;;;;10.35;88.13;101480.50;5033125;28;101395;-29
2023/03/29 10:35:49;;;;;;;8.02;2.35;;;;;;;10.42;88.57;101486.50;5034238;27;97132;-29
2023/03/29 10:38:21;;;;;;;3.58;2.13;;;;;;;10.40;89.53;101474.88;5033577;28;96459;-29
2023/03/29 10:40:52;;;;;;;5.20;2.90;;;;;;;10.45;88.09;101477.34;5033045;28;101054;-29
2023/03/29 10:43:36;;;;;;;4.45;2.60;;;;;;;10.52;87.51;101467.94;5033089;28;100835;-29
2023/03/29 10:46:12;;;;;;;3.75;2.22;;;;;;;10.58;87.79;101470.31;5033260;28;96648;-29
2023/03/29 10:48:38;;;;;;;3.45;2.58;;;;;;;10.62;88.13;101466.50;5034658;27;96727;-29
2023/03/29 10:51:06;;;;;;;4.75;2.83;;;;;;;10.73;87.94;101456.00;5033089;28;100557;-28
2023/03/29 10:53:34;;;;;;;5.35;2.38;;;;;;;10.82;88.26;101451.91;5033211;28;100795;-29
2023/03/29 10:56:09;;;;;;;4.65;2.53;;;;;;;10.93;87.66;101446.78;5034866;27;96687;-30
2023/03/29 10:58:46;;;;;;;4.32;2.50;;;;;;;11.05;86.67;101450.69;5034783;28;96812;-29
2023/03/29 11:01:19;;;;;;;4.20;2.65;;;;;;;11.22;85.64;101444.34;5032541;28;100772;-29
2023/03/29 11:04:03;;;;;;;4.18;2.70;;;;;;;11.40;86.35;101451.47;5033990;27;101303;-30
2023/03/29 11:06:51;;;;;;;3.20;2.22;;;;;;;11.49;86.15;101458.22;5036907;28;96727;-29
2023/03/29 11:09:38;;;;;;;5.72;2.95;;;;;;;11.48;85.64;101464.59;5038425;27;96644;-29
2023/03/29 11:12:33;;;;;;;5.88;3.50;;;;;;;11.40;85.68;101465.03;5036289;28;100837;-29
2023/03/29 11:15:11;;;;;;;8.80;3.20;;;;;;;11.29;85.82;101464.75;5036172;28;101325;-29
2023/03/29 11:18:21;;;;;;;4.65;3.00;;;;;;;11.22;86.95;101477.75;5036599;28;96712;-28
2023/03/29 11:21:11;;;;;;;5.10;3.03;;;;;;;11.19;86.73;101488.78;5038295;28;96822;-29
2023/03/29 11:23:48;;;;;;;9.63;2.67;;;;;;;11.15;86.36;101492.59;5036233;28;100800;-30
2023/03/29 11:26:35;;;;;;;3.92;2.42;;;;;;;11.16;86.84;101490.78;5035977;28;100948;-30
2023/03/29 11:29:27;;;;;;;5.82;2.63;;;;;;;11.09;86.35;101505.63;5035461;28;96713;-28
2023/03/29 11:31:52;;;;;;;4.20;2.50;;;;;;;10.99;86.95;101495.28;5037596;27;97480;-29
2023/03/29 11:35:01;;;;;;;5.10;2.95;;;;;;;10.96;87.20;101498.13;5037096;27;97980;-29
2023/03/29 11:37:55;;;;;;;5.20;2.95;;;;;;;10.92;86.94;101487.56;5035799;27;100873;-29
2023/03/29 11:40:39;;;;;;;4.90;2.88;;;;;;;10.92;87.01;101487.56;5036448;28;96528;-30
2023/03/29 11:43:11;;;;;;;5.25;3.03;;;;;;;10.87;86.93;101482.38;5037753;28;96616;-29